Hafar Al-Batin, Saudi Arabia
Current Conditions -  °F | °C
As of 6:00 PM on Thursday 23 Oct 2014 (Local Time) from OEPA Reporting Station
Clear Clear  
Wind Chill: 82°   Ceiling: Unl
Heat Index: 82°   Visibility: 6mi
Dew Point: 59°   Wind: 12mph
Humidity: 45%   Direction: 90°E
Pressure: 30"   Gusts: NA
Location:  28.43°N, 45.96°E
Report Text: OEPA 231500Z 09010KT CAVOK 28/15 Q1016 NOSIG
Loading
Personal Weather Stations






























Interactive Weather Map
Tropical Storm Tracking
New forecast layout! Learn more

10-Day Weather Forecast

Advertisements
Track Severe Weather on mobile